createdAt,value
2018-01-22T00:00:16.040Z,90.80
2018-01-22T00:02:43.217Z,90.70
2018-01-22T00:05:09.840Z,90.80
2018-01-22T00:07:36.876Z,90.50
2018-01-22T00:10:09.662Z,90.70
2018-01-22T00:12:36.320Z,90.70
2018-01-22T00:15:02.940Z,91.00
2018-01-22T00:17:29.636Z,90.90
2018-01-22T00:19:56.269Z,90.90
2018-01-22T00:22:22.855Z,91.00
2018-01-22T00:24:49.933Z,90.90
2018-01-22T00:27:16.589Z,90.90
2018-01-22T00:29:43.176Z,91.00
2018-01-22T00:32:09.787Z,90.90
2018-01-22T00:34:36.437Z,90.80
2018-01-22T00:37:03.141Z,90.80
2018-01-22T00:39:29.808Z,91.20
2018-01-22T00:41:56.424Z,90.90
2018-01-22T00:44:23.088Z,90.80
2018-01-22T00:46:49.713Z,90.60
2018-01-22T00:49:16.335Z,90.90
2018-01-22T00:51:43.020Z,90.80
2018-01-22T00:54:09.603Z,90.80
2018-01-22T00:56:36.192Z,90.80
2018-01-22T00:59:03.241Z,90.60
2018-01-22T01:01:35.801Z,90.90
2018-01-22T01:04:02.684Z,90.80
2018-01-22T01:06:29.302Z,90.80
2018-01-22T01:08:56.332Z,90.70
2018-01-22T01:11:23.287Z,90.70
2018-01-22T01:13:54.242Z,91.00
2018-01-22T01:16:21.234Z,90.90
2018-01-22T01:18:47.883Z,90.80
2018-01-22T01:21:14.446Z,91.00
2018-01-22T01:23:41.057Z,90.70
2018-01-22T01:26:07.788Z,90.70
2018-01-22T01:28:34.348Z,90.60
2018-01-22T01:31:01.025Z,90.70
2018-01-22T01:33:27.694Z,90.30
2018-01-22T01:35:54.278Z,90.80
2018-01-22T01:38:20.917Z,90.30
2018-01-22T01:40:47.584Z,90.80
2018-01-22T01:43:16.131Z,90.60
2018-01-22T01:45:42.757Z,90.60
2018-01-22T01:48:09.415Z,90.70
2018-01-22T01:50:36.045Z,90.70
2018-01-22T01:53:02.749Z,90.60
2018-01-22T01:55:29.419Z,90.60
2018-01-22T01:57:56.060Z,90.70
2018-01-22T02:00:22.620Z,90.10
2018-01-22T02:02:49.629Z,90.60
2018-01-22T02:05:16.247Z,90.80
2018-01-22T02:07:42.942Z,90.90
2018-01-22T02:10:09.555Z,90.80
2018-01-22T02:12:36.123Z,90.60
2018-01-22T02:15:03.207Z,90.70
2018-01-22T02:17:29.775Z,90.60
2018-01-22T02:19:56.346Z,90.60
2018-01-22T02:22:23.699Z,90.50
2018-01-22T02:24:50.715Z,90.80
2018-01-22T02:27:17.287Z,90.80
2018-01-22T02:29:44.299Z,90.80
2018-01-22T02:32:10.950Z,90.80
2018-01-22T02:34:37.613Z,90.80
2018-01-22T02:37:04.620Z,90.90
2018-01-22T02:39:31.207Z,91.00
2018-01-22T02:41:57.892Z,90.90
2018-01-22T02:44:24.542Z,90.70
2018-01-22T02:46:51.579Z,90.80
2018-01-22T02:49:18.264Z,90.80
2018-01-22T02:51:44.859Z,90.80
2018-01-22T02:54:11.537Z,91.10
2018-01-22T02:56:38.500Z,91.30
2018-01-22T02:59:05.128Z,91.20
2018-01-22T03:01:31.817Z,91.20
2018-01-22T03:03:58.778Z,90.80
2018-01-22T03:06:25.465Z,90.90
2018-01-22T03:08:52.095Z,91.10
2018-01-22T03:11:19.988Z,90.80
2018-01-22T03:13:46.558Z,90.90
2018-01-22T03:16:13.179Z,91.00
2018-01-22T03:18:39.879Z,91.10
2018-01-22T03:21:06.524Z,91.10
2018-01-22T03:23:33.541Z,91.00
2018-01-22T03:26:00.131Z,90.90
2018-01-22T03:28:26.703Z,90.80
2018-01-22T03:30:53.674Z,91.40
2018-01-22T03:33:30.755Z,91.40
2018-01-22T03:35:57.406Z,91.70
2018-01-22T03:38:24.089Z,91.40
2018-01-22T03:40:50.717Z,91.30
2018-01-22T03:43:17.685Z,90.90
2018-01-22T03:45:44.320Z,90.80
2018-01-22T03:48:10.943Z,90.90
2018-01-22T03:50:37.927Z,91.00
2018-01-22T03:53:04.907Z,91.10
2018-01-22T03:55:31.511Z,91.00
2018-01-22T03:57:58.621Z,90.80
2018-01-22T04:00:25.270Z,90.90
2018-01-22T04:02:51.957Z,90.90
2018-01-22T04:08:23.548Z,91.00
2018-01-22T04:10:50.241Z,91.00
2018-01-22T04:13:16.836Z,91.00
2018-01-22T04:15:43.437Z,91.10
2018-01-22T04:18:10.476Z,90.80
2018-01-22T04:20:37.484Z,91.00
2018-01-22T04:23:04.151Z,91.20
2018-01-22T04:25:30.894Z,91.00
2018-01-22T04:27:57.950Z,90.80
2018-01-22T04:30:25.025Z,91.00
2018-01-22T04:32:51.644Z,90.70
2018-01-22T04:35:23.952Z,90.70
2018-01-22T04:37:50.592Z,90.60
2018-01-22T04:40:17.155Z,90.80
2018-01-22T04:42:43.787Z,91.20
2018-01-22T04:45:10.510Z,91.20
2018-01-22T04:47:38.123Z,91.50
2018-01-22T04:50:05.111Z,91.60
2018-01-22T04:52:53.107Z,91.40
2018-01-22T04:55:20.237Z,90.90
2018-01-22T04:57:46.827Z,91.20
2018-01-22T05:00:13.476Z,90.90
2018-01-22T05:02:55.151Z,91.30
2018-01-22T05:05:21.787Z,91.20
2018-01-22T05:07:48.408Z,91.50
2018-01-22T05:10:15.383Z,91.20
2018-01-22T05:12:42.036Z,91.40
2018-01-22T05:15:08.721Z,91.50
2018-01-22T05:17:35.712Z,91.50
2018-01-22T05:20:02.382Z,91.20
2018-01-22T05:22:28.971Z,91.50
2018-01-22T05:24:55.556Z,91.60
2018-01-22T05:27:22.227Z,91.80
2018-01-22T05:29:49.235Z,91.80
2018-01-22T05:32:15.803Z,91.40
2018-01-22T05:34:42.908Z,91.60
2018-01-22T05:37:22.991Z,91.40
2018-01-22T05:39:49.638Z,91.80
2018-01-22T05:42:16.688Z,91.40
2018-01-22T05:44:43.343Z,91.20
2018-01-22T05:47:09.996Z,90.80
2018-01-22T05:49:36.588Z,90.40
2018-01-22T05:52:03.255Z,90.40
2018-01-22T05:54:30.300Z,90.70
2018-01-22T05:56:57.313Z,91.50
2018-01-22T05:59:23.995Z,91.20
2018-01-22T06:01:50.615Z,91.00
2018-01-22T06:04:17.611Z,91.50
2018-01-22T06:06:44.385Z,90.90
2018-01-22T06:09:11.018Z,91.20
2018-01-22T06:11:48.125Z,91.60
2018-01-22T06:14:15.091Z,92.20
2018-01-22T06:16:41.744Z,91.80
2018-01-22T06:19:08.414Z,91.20
2018-01-22T06:21:35.054Z,91.10
2018-01-22T06:24:01.672Z,91.00
2018-01-22T06:26:28.415Z,90.50
2018-01-22T06:28:55.109Z,90.50
2018-01-22T06:31:24.153Z,90.00
2018-01-22T06:33:55.063Z,90.90
2018-01-22T06:36:21.710Z,91.10
2018-01-22T06:38:50.381Z,91.40
2018-01-22T06:41:16.935Z,91.20
2018-01-22T06:43:43.538Z,91.40
2018-01-22T06:46:10.571Z,91.90
2018-01-22T06:48:37.243Z,91.90
2018-01-22T06:51:03.864Z,91.70
2018-01-22T06:53:30.898Z,91.80
2018-01-22T06:55:57.523Z,91.80
2018-01-22T06:58:24.121Z,91.70
2018-01-22T07:00:50.742Z,92.20
2018-01-22T07:03:18.358Z,91.80
2018-01-22T07:05:44.969Z,92.10
2018-01-22T07:08:11.693Z,91.70
2018-01-22T07:10:38.314Z,92.20
2018-01-22T07:13:04.887Z,91.60
2018-01-22T07:15:31.536Z,92.20
2018-01-22T07:17:58.139Z,91.90
2018-01-22T07:20:24.793Z,92.40
2018-01-22T07:22:51.348Z,92.40
2018-01-22T07:25:17.971Z,92.40
2018-01-22T07:27:44.667Z,92.20
2018-01-22T07:30:11.643Z,92.00
2018-01-22T07:32:38.267Z,92.40
2018-01-22T07:35:05.558Z,92.30
2018-01-22T07:37:32.187Z,92.70
2018-01-22T07:39:58.868Z,92.40
2018-01-22T07:42:25.801Z,92.20
2018-01-22T07:44:52.481Z,92.40
2018-01-22T07:47:19.120Z,92.30
2018-01-22T07:49:46.251Z,91.90
2018-01-22T07:52:13.325Z,92.40
2018-01-22T07:54:39.939Z,92.40
2018-01-22T07:57:06.629Z,92.30
2018-01-22T07:59:33.307Z,92.40
2018-01-22T08:01:59.948Z,92.10
2018-01-22T08:04:27.021Z,92.20
2018-01-22T08:06:53.686Z,92.50
2018-01-22T08:09:20.268Z,92.50
2018-01-22T08:11:46.910Z,92.30
2018-01-22T08:14:13.986Z,92.00
2018-01-22T08:16:47.059Z,92.20
2018-01-22T08:19:14.071Z,92.00
2018-01-22T08:21:40.736Z,92.20
2018-01-22T08:24:08.079Z,92.20
2018-01-22T08:26:34.680Z,91.90
2018-01-22T08:29:01.259Z,92.00
2018-01-22T08:31:27.967Z,91.90
2018-01-22T08:33:54.574Z,92.00
2018-01-22T08:36:21.208Z,91.90
2018-01-22T08:38:48.087Z,91.80
2018-01-22T08:41:14.699Z,91.70
2018-01-22T08:43:41.259Z,91.70
2018-01-22T08:46:07.915Z,91.50
2018-01-22T08:48:34.571Z,91.50
2018-01-22T08:51:01.616Z,91.50
2018-01-22T08:53:28.233Z,91.40
2018-01-22T08:55:54.900Z,91.70
2018-01-22T08:58:21.927Z,91.70
2018-01-22T09:00:48.512Z,91.90
2018-01-22T09:03:15.198Z,91.90
2018-01-22T09:05:41.775Z,91.80
2018-01-22T09:08:08.396Z,91.80
2018-01-22T09:10:35.013Z,91.50
2018-01-22T09:13:02.674Z,91.90
2018-01-22T09:15:29.284Z,91.70
2018-01-22T09:17:55.950Z,91.80
2018-01-22T09:20:22.550Z,91.70
2018-01-22T09:22:49.183Z,91.70
2018-01-22T09:25:15.901Z,91.60
2018-01-22T09:27:42.493Z,91.50
2018-01-22T09:30:09.138Z,91.30
2018-01-22T09:32:35.763Z,91.30
2018-01-22T09:35:02.385Z,91.30
2018-01-22T09:37:28.979Z,91.30
2018-01-22T09:39:55.985Z,91.30
2018-01-22T09:42:22.571Z,91.20
2018-01-22T09:44:49.580Z,91.10
2018-01-22T09:47:16.561Z,91.00
2018-01-22T09:49:43.600Z,91.10
2018-01-22T09:52:10.240Z,91.10
2018-01-22T09:54:37.348Z,91.10
2018-01-22T09:57:03.951Z,91.20
2018-01-22T09:59:30.596Z,91.20
2018-01-22T10:01:57.231Z,91.20
2018-01-22T10:04:24.092Z,91.20
2018-01-22T10:06:50.665Z,91.20
2018-01-22T10:09:19.376Z,91.00
2018-01-22T10:11:46.399Z,90.80
2018-01-22T10:14:13.039Z,91.00
2018-01-22T10:16:39.682Z,91.00
2018-01-22T10:19:06.323Z,91.00
2018-01-22T10:21:33.352Z,90.80
2018-01-22T10:24:00.054Z,90.70
2018-01-22T10:26:26.662Z,90.70
2018-01-22T10:28:53.309Z,90.60
2018-01-22T10:31:20.300Z,90.50
2018-01-22T10:33:46.900Z,90.50
2018-01-22T10:36:13.545Z,90.50
2018-01-22T10:38:40.155Z,90.50
2018-01-22T10:41:06.761Z,90.50
2018-01-22T10:43:34.492Z,90.40
2018-01-22T10:46:01.075Z,90.50
2018-01-22T10:48:27.665Z,90.40
2018-01-22T10:50:54.315Z,90.50
2018-01-22T10:53:20.899Z,90.60
2018-01-22T10:55:47.483Z,90.60
2018-01-22T10:58:14.418Z,90.50
2018-01-22T11:00:41.089Z,90.50
2018-01-22T11:03:07.722Z,90.40
2018-01-22T11:05:34.420Z,90.40
2018-01-22T11:08:01.448Z,90.50
2018-01-22T11:10:28.532Z,90.50
2018-01-22T11:12:55.471Z,90.50
2018-01-22T11:15:28.228Z,90.50
2018-01-22T11:17:55.235Z,90.50
2018-01-22T11:20:21.892Z,90.20
2018-01-22T11:22:48.551Z,90.20
2018-01-22T11:25:15.511Z,90.00
2018-01-22T11:27:42.483Z,90.00
2018-01-22T11:30:09.168Z,89.90
2018-01-22T11:32:35.733Z,89.90
2018-01-22T11:35:02.737Z,90.00
2018-01-22T11:37:29.388Z,89.90
2018-01-22T11:40:04.448Z,89.70
2018-01-22T11:42:31.451Z,89.70
2018-01-22T11:44:58.088Z,89.90
2018-01-22T11:47:24.772Z,89.60
2018-01-22T11:49:51.811Z,89.90
2018-01-22T11:52:18.391Z,89.70
2018-01-22T11:54:45.033Z,89.70
2018-01-22T11:57:11.685Z,89.60
2018-01-22T11:59:38.283Z,89.60
2018-01-22T12:02:04.919Z,89.60
2018-01-22T12:04:31.987Z,89.70
2018-01-22T12:06:58.649Z,89.70
2018-01-22T12:09:25.388Z,89.60
2018-01-22T12:11:52.059Z,89.60
2018-01-22T12:14:25.364Z,89.60
2018-01-22T12:16:52.508Z,89.80
2018-01-22T12:19:19.547Z,89.70
2018-01-22T12:21:46.196Z,89.50
2018-01-22T12:24:13.267Z,89.60
2018-01-22T12:26:39.868Z,89.80
2018-01-22T12:29:06.545Z,89.70
2018-01-22T12:31:33.131Z,89.70
2018-01-22T12:33:59.772Z,89.90
2018-01-22T12:36:26.422Z,89.90
2018-01-22T12:38:53.025Z,89.90
2018-01-22T12:41:19.685Z,89.80
2018-01-22T12:43:46.307Z,89.70
2018-01-22T12:46:13.227Z,89.70
2018-01-22T12:48:39.827Z,89.80
2018-01-22T12:51:06.860Z,89.70
2018-01-22T12:53:33.503Z,89.80
2018-01-22T12:56:00.401Z,89.90
2018-01-22T12:58:27.027Z,89.70
2018-01-22T13:00:53.636Z,89.60
2018-01-22T13:03:20.649Z,89.80
2018-01-22T13:05:47.244Z,89.90
2018-01-22T13:08:25.636Z,89.80
2018-01-22T13:10:52.582Z,90.00
2018-01-22T13:13:19.586Z,90.10
2018-01-22T13:15:46.491Z,89.90
2018-01-22T13:18:13.122Z,90.00
2018-01-22T13:20:40.102Z,90.10
2018-01-22T13:23:06.760Z,90.20
2018-01-22T13:25:39.421Z,90.40
2018-01-22T13:28:08.024Z,90.20
2018-01-22T13:30:34.667Z,90.50
2018-01-22T13:33:01.296Z,90.70
2018-01-22T13:35:28.000Z,90.80
2018-01-22T13:37:54.752Z,90.70
2018-01-22T13:40:27.095Z,90.90
2018-01-22T13:42:54.123Z,90.70
2018-01-22T13:45:20.772Z,90.70
2018-01-22T13:47:47.436Z,90.70
2018-01-22T13:50:14.116Z,90.90
2018-01-22T13:52:40.747Z,90.90
2018-01-22T13:55:07.355Z,90.80
2018-01-22T13:57:34.101Z,90.90
2018-01-22T14:00:00.727Z,90.90
2018-01-22T14:02:27.314Z,90.80
2018-01-22T14:04:53.905Z,91.00
2018-01-22T14:07:20.544Z,91.00
2018-01-22T14:09:47.159Z,90.80
2018-01-22T14:12:14.187Z,90.90
2018-01-22T14:14:40.779Z,90.80
2018-01-22T14:17:07.348Z,90.70
2018-01-22T14:19:33.977Z,90.90
2018-01-22T14:22:00.611Z,90.60
2018-01-22T14:24:27.166Z,90.70
2018-01-22T14:26:53.797Z,90.60
2018-01-22T14:29:20.489Z,90.70
2018-01-22T14:31:47.501Z,90.70
2018-01-22T14:34:14.071Z,90.70
2018-01-22T14:36:40.700Z,90.70
2018-01-22T14:39:07.705Z,90.70
2018-01-22T14:41:34.382Z,90.70
2018-01-22T14:44:01.408Z,90.70
2018-01-22T14:46:28.115Z,90.80
2018-01-22T14:48:54.756Z,90.90
2018-01-22T14:51:40.551Z,90.90
2018-01-22T14:54:07.195Z,90.80
2018-01-22T14:56:33.876Z,90.90
2018-01-22T14:59:00.988Z,90.70
2018-01-22T15:01:27.599Z,90.80
2018-01-22T15:03:54.206Z,90.80
2018-01-22T15:06:21.240Z,90.90
2018-01-22T15:08:47.915Z,90.80
2018-01-22T15:11:14.537Z,90.90
2018-01-22T15:13:41.101Z,91.00
2018-01-22T15:16:07.756Z,91.20
2018-01-22T15:18:34.461Z,91.00
2018-01-22T15:21:01.085Z,91.00
2018-01-22T15:23:27.687Z,91.10
2018-01-22T15:25:54.404Z,91.10
2018-01-22T15:28:21.026Z,91.00
2018-01-22T15:30:47.784Z,91.20
2018-01-22T15:33:14.414Z,91.00
2018-01-22T15:35:41.091Z,90.90
2018-01-22T15:38:07.686Z,91.00
2018-01-22T15:40:34.380Z,90.80
2018-01-22T15:43:01.407Z,90.90
2018-01-22T15:45:28.071Z,90.90
2018-01-22T15:47:55.089Z,90.80
2018-01-22T15:50:21.787Z,90.90
2018-01-22T15:52:48.412Z,90.70
2018-01-22T15:55:14.991Z,90.70
2018-01-22T15:57:42.021Z,90.70
2018-01-22T16:00:10.647Z,90.90
2018-01-22T16:02:37.332Z,90.80
2018-01-22T16:05:04.253Z,90.80
2018-01-22T16:07:30.912Z,90.90
2018-01-22T16:09:57.488Z,90.90
2018-01-22T16:12:24.192Z,91.00
2018-01-22T16:14:50.827Z,90.80
2018-01-22T16:17:17.419Z,90.80
2018-01-22T16:19:44.093Z,90.80
2018-01-22T16:22:10.777Z,90.80
2018-01-22T16:24:37.379Z,90.80
2018-01-22T16:27:04.071Z,90.80
2018-01-22T16:29:30.658Z,90.70
2018-01-22T16:31:57.263Z,90.80
2018-01-22T16:34:24.981Z,90.90
2018-01-22T16:36:51.631Z,91.00
2018-01-22T16:39:18.226Z,90.80
2018-01-22T16:41:44.938Z,90.80
2018-01-22T16:44:11.515Z,90.90
2018-01-22T16:46:38.092Z,91.00
2018-01-22T16:49:04.821Z,91.00
2018-01-22T16:51:31.388Z,91.00
2018-01-22T16:53:57.950Z,91.10
2018-01-22T16:56:24.559Z,91.10
2018-01-22T16:58:51.142Z,91.10
2018-01-22T17:01:24.220Z,91.00
2018-01-22T17:03:50.824Z,91.00
2018-01-22T17:06:17.432Z,91.00
2018-01-22T17:08:44.095Z,91.10
2018-01-22T17:11:10.671Z,91.20
2018-01-22T17:13:41.612Z,91.10
2018-01-22T17:16:08.365Z,91.00
2018-01-22T17:18:35.013Z,91.10
2018-01-22T17:21:25.523Z,91.20
2018-01-22T17:23:59.898Z,91.20
2018-01-22T17:26:26.883Z,91.20
2018-01-22T17:28:53.546Z,91.20
2018-01-22T17:31:20.189Z,91.20
2018-01-22T17:33:46.867Z,91.50
2018-01-22T17:36:13.532Z,91.60
2018-01-22T17:38:40.164Z,91.50
2018-01-22T17:41:06.743Z,91.90
2018-01-22T17:43:33.365Z,91.90
2018-01-22T17:46:00.021Z,92.00
2018-01-22T17:48:26.647Z,91.90
2018-01-22T17:53:59.848Z,92.20
2018-01-22T17:56:26.544Z,92.30
2018-01-22T17:58:53.173Z,92.30
2018-01-22T18:01:20.192Z,92.30
2018-01-22T18:03:47.163Z,92.30
2018-01-22T18:06:14.211Z,92.30
2018-01-22T18:08:54.945Z,92.20
2018-01-22T18:11:21.564Z,92.30
2018-01-22T18:14:00.680Z,92.10
2018-01-22T18:16:27.239Z,92.20
2018-01-22T18:18:53.911Z,92.10
2018-01-22T18:21:20.876Z,92.30
2018-01-22T18:23:47.966Z,92.30
2018-01-22T18:26:14.583Z,92.20
2018-01-22T18:28:41.200Z,92.20
2018-01-22T18:31:08.208Z,92.40
2018-01-22T18:33:41.333Z,92.20
2018-01-22T18:36:08.413Z,92.30
2018-01-22T18:38:40.015Z,92.60
2018-01-22T18:41:06.636Z,92.40
2018-01-22T18:43:33.295Z,92.30
2018-01-22T18:45:59.938Z,92.70
2018-01-22T18:48:26.579Z,92.80
2018-01-22T18:50:53.547Z,92.40
2018-01-22T18:53:21.128Z,92.60
2018-01-22T18:55:47.755Z,92.70
2018-01-22T18:58:21.308Z,92.50
2018-01-22T19:00:48.265Z,92.90
2018-01-22T19:03:15.259Z,92.90
2018-01-22T19:05:41.871Z,92.90
2018-01-22T19:08:08.912Z,92.70
2018-01-22T19:10:35.551Z,93.10
2018-01-22T19:13:02.204Z,93.00
2018-01-22T19:15:28.877Z,92.90
2018-01-22T19:17:55.467Z,92.90
2018-01-22T19:20:22.513Z,92.80
2018-01-22T19:23:01.847Z,92.90
2018-01-22T19:25:39.535Z,92.90
2018-01-22T19:28:19.160Z,92.90
2018-01-22T19:30:51.213Z,92.80
2018-01-22T19:33:17.882Z,93.10
2018-01-22T19:35:44.907Z,93.10
2018-01-22T19:38:11.568Z,93.10
2018-01-22T19:40:57.089Z,93.10
2018-01-22T19:43:24.676Z,93.30
2018-01-22T19:48:43.698Z,93.50
2018-01-22T19:51:18.188Z,93.30
2018-01-22T19:53:45.883Z,93.40
2018-01-22T19:56:17.157Z,93.40
2018-01-22T19:58:43.737Z,93.40
2018-01-22T20:01:10.710Z,93.50
2018-01-22T20:03:49.778Z,93.40
2018-01-22T20:06:16.456Z,93.40
2018-01-22T20:08:43.228Z,93.40
2018-01-22T20:11:09.881Z,93.40
2018-01-22T20:13:36.546Z,93.20
2018-01-22T20:16:03.222Z,93.40
2018-01-22T20:18:29.875Z,93.40
2018-01-22T20:21:02.103Z,93.30
2018-01-22T20:23:28.760Z,93.50
2018-01-22T20:26:01.226Z,93.50
2018-01-22T20:28:27.880Z,93.40
2018-01-22T20:30:54.514Z,93.00
2018-01-22T20:33:21.165Z,93.40
2018-01-22T20:35:48.287Z,93.40
2018-01-22T20:38:15.323Z,93.20
2018-01-22T20:40:41.932Z,93.20
2018-01-22T20:43:15.406Z,93.20
2018-01-22T20:45:42.381Z,93.10
2018-01-22T20:48:15.423Z,93.10
2018-01-22T20:50:45.590Z,93.10
2018-01-22T20:53:12.172Z,93.20
2018-01-22T20:55:39.944Z,93.10
2018-01-22T20:58:10.557Z,93.10
2018-01-22T21:00:45.772Z,93.20
2018-01-22T21:03:20.539Z,93.10
2018-01-22T21:05:47.208Z,93.40
2018-01-22T21:08:13.840Z,93.20
2018-01-22T21:10:40.472Z,93.50
2018-01-22T21:13:19.408Z,93.50
2018-01-22T21:15:46.065Z,93.50
2018-01-22T21:18:12.638Z,93.40
2018-01-22T21:20:39.312Z,93.40
2018-01-22T21:23:06.934Z,93.50
2018-01-22T21:25:33.527Z,93.60
2018-01-22T21:28:00.239Z,93.40
2018-01-22T21:30:28.259Z,93.40
2018-01-22T21:32:56.837Z,93.50
2018-01-22T21:35:23.471Z,93.40
2018-01-22T21:37:50.046Z,93.50
2018-01-22T21:40:16.679Z,93.60
2018-01-22T21:42:43.260Z,93.40
2018-01-22T21:45:10.285Z,93.60
2018-01-22T21:47:37.025Z,93.60
2018-01-22T21:50:03.632Z,93.40
2018-01-22T21:52:42.035Z,93.50
2018-01-22T21:55:09.729Z,93.50
2018-01-22T21:57:36.323Z,93.50
2018-01-22T22:00:02.947Z,93.50
2018-01-22T22:02:29.550Z,93.50
2018-01-22T22:04:56.179Z,93.50
2018-01-22T22:07:30.901Z,93.50
2018-01-22T22:09:57.491Z,93.50
2018-01-22T22:12:25.094Z,93.60
2018-01-22T22:14:57.533Z,93.70
2018-01-22T22:17:25.163Z,93.60
2018-01-22T22:19:52.191Z,93.60
2018-01-22T22:22:18.792Z,93.50
2018-01-22T22:24:45.423Z,93.50
2018-01-22T22:27:12.395Z,93.60
2018-01-22T22:29:38.987Z,93.50
2018-01-22T22:32:05.552Z,93.60
2018-01-22T22:34:32.478Z,93.50
2018-01-22T22:36:59.145Z,93.40
2018-01-22T22:39:25.792Z,93.50
2018-01-22T22:41:52.714Z,93.50
2018-01-22T22:44:19.280Z,93.50
2018-01-22T22:46:45.887Z,93.40
2018-01-22T22:49:12.485Z,93.40
2018-01-22T22:51:39.587Z,93.40
2018-01-22T22:54:06.213Z,93.40
2018-01-22T22:56:32.806Z,93.40
2018-01-22T22:58:59.894Z,93.50
2018-01-22T23:01:26.475Z,93.50
2018-01-22T23:03:53.051Z,93.40
2018-01-22T23:06:19.726Z,93.40
2018-01-22T23:08:46.349Z,93.40
2018-01-22T23:11:12.977Z,93.50
2018-01-22T23:13:48.124Z,93.50
2018-01-22T23:16:14.766Z,93.40
2018-01-22T23:18:41.371Z,93.50
2018-01-22T23:21:08.425Z,93.50
2018-01-22T23:23:36.032Z,93.50
2018-01-22T23:26:02.743Z,93.40
2018-01-22T23:28:29.688Z,93.50
2018-01-22T23:30:56.304Z,93.40
2018-01-22T23:33:23.352Z,93.40
2018-01-22T23:35:50.727Z,93.40
2018-01-22T23:38:17.396Z,93.50
2018-01-22T23:40:44.060Z,93.50
2018-01-22T23:43:10.684Z,93.50
2018-01-22T23:45:37.319Z,93.50
2018-01-22T23:48:15.631Z,93.50
2018-01-22T23:50:42.273Z,93.40
2018-01-22T23:53:29.448Z,93.50
2018-01-22T23:55:57.001Z,93.40
2018-01-22T23:58:23.578Z,93.40
